sensor_id;sensor_type;location;lat;lon;timestamp;pressure;altitude;pressure_sealevel;temperature;humidity
46756;BME280;32506;52.826;-1.192;2023-05-19T00:01:26;102056.66;;;16.33;40.91
46756;BME280;32506;52.826;-1.192;2023-05-19T00:03:56;102063.31;;;16.30;41.06
46756;BME280;32506;52.826;-1.192;2023-05-19T00:06:25;102061.03;;;16.27;40.95
46756;BME280;32506;52.826;-1.192;2023-05-19T00:09:01;102063.97;;;16.25;40.92
46756;BME280;32506;52.826;-1.192;2023-05-19T00:11:27;102051.13;;;16.21;41.09
46756;BME280;32506;52.826;-1.192;2023-05-19T00:13:56;102050.72;;;16.17;41.04
46756;BME280;32506;52.826;-1.192;2023-05-19T00:16:23;102051.97;;;16.15;40.98
46756;BME280;32506;52.826;-1.192;2023-05-19T00:18:49;102051.56;;;16.11;40.92
46756;BME280;32506;52.826;-1.192;2023-05-19T00:21:16;102048.50;;;16.07;41.05
46756;BME280;32506;52.826;-1.192;2023-05-19T00:23:42;102048.09;;;16.04;40.92
46756;BME280;32506;52.826;-1.192;2023-05-19T00:26:08;102048.28;;;16.02;40.96
46756;BME280;32506;52.826;-1.192;2023-05-19T00:28:34;102050.59;;;15.99;40.97
46756;BME280;32506;52.826;-1.192;2023-05-19T00:30:59;102046.66;;;15.94;41.03
46756;BME280;32506;52.826;-1.192;2023-05-19T00:33:26;102047.91;;;15.92;41.14
46756;BME280;32506;52.826;-1.192;2023-05-19T00:35:52;102045.66;;;15.89;41.40
46756;BME280;32506;52.826;-1.192;2023-05-19T00:38:17;102045.03;;;15.87;41.63
46756;BME280;32506;52.826;-1.192;2023-05-19T00:40:43;102041.09;;;15.83;41.92
46756;BME280;32506;52.826;-1.192;2023-05-19T00:43:09;102053.75;;;15.82;41.97
46756;BME280;32506;52.826;-1.192;2023-05-19T00:45:34;102048.75;;;15.79;42.02
46756;BME280;32506;52.826;-1.192;2023-05-19T00:48:00;102046.47;;;15.76;41.94
46756;BME280;32506;52.826;-1.192;2023-05-19T00:50:26;102045.25;;;15.72;42.00
46756;BME280;32506;52.826;-1.192;2023-05-19T00:52:53;102047.34;;;15.70;42.01
46756;BME280;32506;52.826;-1.192;2023-05-19T00:55:25;102038.84;;;15.66;41.95
46756;BME280;32506;52.826;-1.192;2023-05-19T00:57:52;102035.72;;;15.63;41.77
46756;BME280;32506;52.826;-1.192;2023-05-19T01:00:18;102045.91;;;15.60;41.72
46756;BME280;32506;52.826;-1.192;2023-05-19T01:02:44;102041.75;;;15.58;41.73
46756;BME280;32506;52.826;-1.192;2023-05-19T01:05:10;102043.00;;;15.55;41.83
46756;BME280;32506;52.826;-1.192;2023-05-19T01:07:36;102048.78;;;15.52;41.71
46756;BME280;32506;52.826;-1.192;2023-05-19T01:10:02;102047.38;;;15.50;41.77
46756;BME280;32506;52.826;-1.192;2023-05-19T01:12:29;102050.47;;;15.47;41.97
46756;BME280;32506;52.826;-1.192;2023-05-19T01:14:56;102047.38;;;15.43;42.04
46756;BME280;32506;52.826;-1.192;2023-05-19T01:17:35;102051.31;;;15.40;42.00
46756;BME280;32506;52.826;-1.192;2023-05-19T01:22:56;102058.34;;;15.35;42.09
46756;BME280;32506;52.826;-1.192;2023-05-19T01:25:42;102057.75;;;15.33;42.20
46756;BME280;32506;52.826;-1.192;2023-05-19T01:30:41;102062.13;;;15.27;42.23
46756;BME280;32506;52.826;-1.192;2023-05-19T01:33:09;102055.28;;;15.24;42.22
46756;BME280;32506;52.826;-1.192;2023-05-19T01:35:36;102055.88;;;15.20;42.21
46756;BME280;32506;52.826;-1.192;2023-05-19T01:38:08;102055.06;;;15.19;42.34
46756;BME280;32506;52.826;-1.192;2023-05-19T01:40:34;102066.25;;;15.16;42.37
46756;BME280;32506;52.826;-1.192;2023-05-19T01:43:00;102068.31;;;15.14;42.17
46756;BME280;32506;52.826;-1.192;2023-05-19T01:45:29;102068.75;;;15.11;42.36
46756;BME280;32506;52.826;-1.192;2023-05-19T01:47:58;102060.25;;;15.07;42.33
46756;BME280;32506;52.826;-1.192;2023-05-19T01:50:24;102069.56;;;15.05;42.28
46756;BME280;32506;52.826;-1.192;2023-05-19T01:52:50;102054.63;;;15.02;42.42
46756;BME280;32506;52.826;-1.192;2023-05-19T01:55:16;102047.81;;;15.00;42.32
46756;BME280;32506;52.826;-1.192;2023-05-19T02:08:26;102047.59;;;14.88;42.19
46756;BME280;32506;52.826;-1.192;2023-05-19T02:10:59;102051.72;;;14.84;42.31
46756;BME280;32506;52.826;-1.192;2023-05-19T02:13:36;102048.41;;;14.82;41.98
46756;BME280;32506;52.826;-1.192;2023-05-19T02:16:04;102046.97;;;14.79;42.06
46756;BME280;32506;52.826;-1.192;2023-05-19T02:18:33;102047.38;;;14.76;41.96
46756;BME280;32506;52.826;-1.192;2023-05-19T02:21:00;102054.00;;;14.73;42.13
46756;BME280;32506;52.826;-1.192;2023-05-19T02:23:25;102052.56;;;14.71;41.98
46756;BME280;32506;52.826;-1.192;2023-05-19T02:25:51;102053.78;;;14.68;42.10
46756;BME280;32506;52.826;-1.192;2023-05-19T02:28:17;102049.44;;;14.67;41.94
46756;BME280;32506;52.826;-1.192;2023-05-19T02:30:42;102043.44;;;14.65;41.83
46756;BME280;32506;52.826;-1.192;2023-05-19T02:33:08;102040.09;;;14.63;41.81
46756;BME280;32506;52.826;-1.192;2023-05-19T02:35:35;102039.47;;;14.61;41.88
46756;BME280;32506;52.826;-1.192;2023-05-19T02:38:01;102033.44;;;14.59;41.90
46756;BME280;32506;52.826;-1.192;2023-05-19T02:40:26;102033.66;;;14.57;42.00
46756;BME280;32506;52.826;-1.192;2023-05-19T02:42:52;102031.38;;;14.54;42.11
46756;BME280;32506;52.826;-1.192;2023-05-19T02:45:18;102047.72;;;14.53;42.11
46756;BME280;32506;52.826;-1.192;2023-05-19T02:47:43;102044.41;;;14.51;42.32
46756;BME280;32506;52.826;-1.192;2023-05-19T02:50:09;102045.63;;;14.48;42.14
46756;BME280;32506;52.826;-1.192;2023-05-19T02:52:34;102048.31;;;14.48;41.92
46756;BME280;32506;52.826;-1.192;2023-05-19T02:55:00;102040.69;;;14.45;41.94
46756;BME280;32506;52.826;-1.192;2023-05-19T02:57:25;102046.22;;;14.43;42.07
46756;BME280;32506;52.826;-1.192;2023-05-19T02:59:54;102042.94;;;14.41;42.02
46756;BME280;32506;52.826;-1.192;2023-05-19T03:02:19;102037.75;;;14.40;41.73
46756;BME280;32506;52.826;-1.192;2023-05-19T03:04:45;102026.34;;;14.38;42.01
46756;BME280;32506;52.826;-1.192;2023-05-19T03:07:10;102028.44;;;14.36;42.15
46756;BME280;32506;52.826;-1.192;2023-05-19T03:09:38;102033.19;;;14.34;42.15
46756;BME280;32506;52.826;-1.192;2023-05-19T03:12:04;102039.56;;;14.33;42.15
46756;BME280;32506;52.826;-1.192;2023-05-19T03:14:33;102034.41;;;14.31;42.22
46756;BME280;32506;52.826;-1.192;2023-05-19T03:16:59;102041.66;;;14.31;42.19
46756;BME280;32506;52.826;-1.192;2023-05-19T03:19:25;102038.31;;;14.29;42.25
46756;BME280;32506;52.826;-1.192;2023-05-19T03:21:51;102049.50;;;14.25;42.20
46756;BME280;32506;52.826;-1.192;2023-05-19T03:24:17;102051.38;;;14.25;42.38
46756;BME280;32506;52.826;-1.192;2023-05-19T03:26:42;102062.94;;;14.25;42.40
46756;BME280;32506;52.826;-1.192;2023-05-19T03:29:08;102059.00;;;14.21;42.56
46756;BME280;32506;52.826;-1.192;2023-05-19T03:31:34;102053.81;;;14.20;42.42
46756;BME280;32506;52.826;-1.192;2023-05-19T03:33:59;102062.72;;;14.20;42.70
46756;BME280;32506;52.826;-1.192;2023-05-19T03:36:26;102063.13;;;14.17;42.73
46756;BME280;32506;52.826;-1.192;2023-05-19T03:38:56;102068.50;;;14.17;42.81
46756;BME280;32506;52.826;-1.192;2023-05-19T03:41:22;102058.97;;;14.15;42.86
46756;BME280;32506;52.826;-1.192;2023-05-19T03:43:47;102062.47;;;14.15;42.98
46756;BME280;32506;52.826;-1.192;2023-05-19T03:46:13;102065.56;;;14.12;43.07
46756;BME280;32506;52.826;-1.192;2023-05-19T03:48:38;102066.59;;;14.11;42.93
46756;BME280;32506;52.826;-1.192;2023-05-19T03:51:04;102075.72;;;14.10;42.93
46756;BME280;32506;52.826;-1.192;2023-05-19T03:53:29;102073.19;;;14.08;43.31
46756;BME280;32506;52.826;-1.192;2023-05-19T03:55:55;102078.78;;;14.07;43.39
46756;BME280;32506;52.826;-1.192;2023-05-19T03:58:20;102069.91;;;14.06;43.41
46756;BME280;32506;52.826;-1.192;2023-05-19T04:00:46;102071.94;;;14.04;43.35
46756;BME280;32506;52.826;-1.192;2023-05-19T04:03:11;102064.94;;;14.03;43.60
46756;BME280;32506;52.826;-1.192;2023-05-19T04:05:37;102071.31;;;14.02;43.52
46756;BME280;32506;52.826;-1.192;2023-05-19T04:08:02;102058.91;;;14.01;43.86
46756;BME280;32506;52.826;-1.192;2023-05-19T04:10:28;102074.22;;;14.01;43.68
46756;BME280;32506;52.826;-1.192;2023-05-19T04:12:53;102067.38;;;13.98;43.63
46756;BME280;32506;52.826;-1.192;2023-05-19T04:15:19;102070.06;;;13.98;43.61
46756;BME280;32506;52.826;-1.192;2023-05-19T04:17:44;102064.06;;;13.96;43.79
46756;BME280;32506;52.826;-1.192;2023-05-19T04:20:10;102068.59;;;13.96;43.65
46756;BME280;32506;52.826;-1.192;2023-05-19T04:22:36;102072.31;;;13.95;43.91
46756;BME280;32506;52.826;-1.192;2023-05-19T04:25:02;102070.66;;;13.93;43.73
46756;BME280;32506;52.826;-1.192;2023-05-19T04:27:28;102065.47;;;13.92;43.74
46756;BME280;32506;52.826;-1.192;2023-05-19T04:29:56;102064.00;;;13.89;43.87
46756;BME280;32506;52.826;-1.192;2023-05-19T04:32:22;102066.69;;;13.89;43.94
46756;BME280;32506;52.826;-1.192;2023-05-19T04:34:48;102057.19;;;13.87;44.06
46756;BME280;32506;52.826;-1.192;2023-05-19T04:37:14;102060.72;;;13.87;44.23
46756;BME280;32506;52.826;-1.192;2023-05-19T04:39:42;102057.19;;;13.87;44.09
46756;BME280;32506;52.826;-1.192;2023-05-19T04:42:09;102055.53;;;13.86;43.94
46756;BME280;32506;52.826;-1.192;2023-05-19T04:44:36;102054.69;;;13.85;44.13
46756;BME280;32506;52.826;-1.192;2023-05-19T04:47:03;102048.50;;;13.85;44.19
46756;BME280;32506;52.826;-1.192;2023-05-19T04:49:31;102048.72;;;13.83;44.40
46756;BME280;32506;52.826;-1.192;2023-05-19T04:51:56;102052.41;;;13.82;44.30
46756;BME280;32506;52.826;-1.192;2023-05-19T04:54:22;102055.09;;;13.82;44.28
46756;BME280;32506;52.826;-1.192;2023-05-19T04:56:47;102049.72;;;13.82;44.25
46756;BME280;32506;52.826;-1.192;2023-05-19T04:59:13;102047.44;;;13.79;43.93
46756;BME280;32506;52.826;-1.192;2023-05-19T05:01:38;102059.81;;;13.80;44.31
46756;BME280;32506;52.826;-1.192;2023-05-19T05:04:04;102060.88;;;13.79;44.26
46756;BME280;32506;52.826;-1.192;2023-05-19T05:06:30;102067.28;;;13.78;44.39
46756;BME280;32506;52.826;-1.192;2023-05-19T05:08:55;102067.28;;;13.78;44.33
46756;BME280;32506;52.826;-1.192;2023-05-19T05:11:21;102072.84;;;13.76;44.04
46756;BME280;32506;52.826;-1.192;2023-05-19T05:13:47;102071.38;;;13.74;44.08
46756;BME280;32506;52.826;-1.192;2023-05-19T05:16:13;102057.09;;;13.73;44.20
46756;BME280;32506;52.826;-1.192;2023-05-19T05:18:39;102058.97;;;13.73;44.09
46756;BME280;32506;52.826;-1.192;2023-05-19T05:21:06;102064.34;;;13.73;44.38
46756;BME280;32506;52.826;-1.192;2023-05-19T05:23:32;102064.34;;;13.73;44.23
46756;BME280;32506;52.826;-1.192;2023-05-19T05:25:57;102074.28;;;13.72;44.39
46756;BME280;32506;52.826;-1.192;2023-05-19T05:28:23;102071.59;;;13.72;44.35
46756;BME280;32506;52.826;-1.192;2023-05-19T05:30:48;102064.56;;;13.71;44.14
46756;BME280;32506;52.826;-1.192;2023-05-19T05:33:15;102068.91;;;13.72;44.18
46756;BME280;32506;52.826;-1.192;2023-05-19T05:35:41;102067.03;;;13.73;44.22
46756;BME280;32506;52.826;-1.192;2023-05-19T05:38:07;102076.97;;;13.72;44.47
46756;BME280;32506;52.826;-1.192;2023-05-19T05:40:32;102077.56;;;13.74;44.46
46756;BME280;32506;52.826;-1.192;2023-05-19T05:42:58;102070.34;;;13.75;44.40
46756;BME280;32506;52.826;-1.192;2023-05-19T05:45:24;102076.34;;;13.77;44.68
46756;BME280;32506;52.826;-1.192;2023-05-19T05:47:50;102074.50;;;13.77;44.61
46756;BME280;32506;52.826;-1.192;2023-05-19T05:50:16;102084.00;;;13.80;44.36
46756;BME280;32506;52.826;-1.192;2023-05-19T05:52:45;102085.47;;;13.83;44.35
46756;BME280;32506;52.826;-1.192;2023-05-19T05:55:11;102090.84;;;13.83;44.56
46756;BME280;32506;52.826;-1.192;2023-05-19T05:57:37;102099.56;;;13.85;44.41
46756;BME280;32506;52.826;-1.192;2023-05-19T06:00:03;102099.34;;;13.86;44.64
46756;BME280;32506;52.826;-1.192;2023-05-19T06:02:34;102098.13;;;13.89;44.26
46756;BME280;32506;52.826;-1.192;2023-05-19T06:05:00;102095.25;;;13.90;44.22
46756;BME280;32506;52.826;-1.192;2023-05-19T06:07:26;102100.41;;;13.92;44.37
46756;BME280;32506;52.826;-1.192;2023-05-19T06:09:52;102099.19;;;13.95;43.95
46756;BME280;32506;52.826;-1.192;2023-05-19T06:12:17;102105.22;;;13.97;44.13
46756;BME280;32506;52.826;-1.192;2023-05-19T06:14:43;102099.63;;;13.98;44.03
46756;BME280;32506;52.826;-1.192;2023-05-19T06:17:08;102098.41;;;14.01;43.87
46756;BME280;32506;52.826;-1.192;2023-05-19T06:19:34;102093.84;;;14.01;44.07
46756;BME280;32506;52.826;-1.192;2023-05-19T06:21:59;102094.28;;;14.05;43.76
46756;BME280;32506;52.826;-1.192;2023-05-19T06:24:25;102092.22;;;14.07;44.01
46756;BME280;32506;52.826;-1.192;2023-05-19T06:26:51;102100.94;;;14.09;44.09
46756;BME280;32506;52.826;-1.192;2023-05-19T06:29:16;102099.50;;;14.13;44.12
46756;BME280;32506;52.826;-1.192;2023-05-19T06:31:41;102100.97;;;14.16;44.15
46756;BME280;32506;52.826;-1.192;2023-05-19T06:34:07;102109.44;;;14.19;44.01
46756;BME280;32506;52.826;-1.192;2023-05-19T06:36:36;102109.06;;;14.22;44.08
46756;BME280;32506;52.826;-1.192;2023-05-19T06:39:02;102111.53;;;14.24;44.14
46756;BME280;32506;52.826;-1.192;2023-05-19T06:41:27;102118.19;;;14.28;44.11
46756;BME280;32506;52.826;-1.192;2023-05-19T06:43:53;102119.66;;;14.31;44.11
46756;BME280;32506;52.826;-1.192;2023-05-19T06:46:18;102120.91;;;14.35;44.22
46756;BME280;32506;52.826;-1.192;2023-05-19T06:48:44;102120.50;;;14.38;44.52
46756;BME280;32506;52.826;-1.192;2023-05-19T06:51:10;102119.06;;;14.42;44.48
46756;BME280;32506;52.826;-1.192;2023-05-19T06:53:35;102116.81;;;14.46;44.37
46756;BME280;32506;52.826;-1.192;2023-05-19T06:56:01;102124.47;;;14.49;44.49
46756;BME280;32506;52.826;-1.192;2023-05-19T06:58:26;102119.53;;;14.52;44.53
46756;BME280;32506;52.826;-1.192;2023-05-19T07:00:52;102116.22;;;14.57;44.63
46756;BME280;32506;52.826;-1.192;2023-05-19T07:03:17;102130.09;;;14.60;44.67
46756;BME280;32506;52.826;-1.192;2023-05-19T07:05:43;102126.00;;;14.65;44.88
46756;BME280;32506;52.826;-1.192;2023-05-19T07:08:08;102116.69;;;14.67;44.83
46756;BME280;32506;52.826;-1.192;2023-05-19T07:10:34;102118.78;;;14.72;44.74
46756;BME280;32506;52.826;-1.192;2023-05-19T07:12:59;102115.47;;;14.76;44.96
46756;BME280;32506;52.826;-1.192;2023-05-19T07:15:25;102115.91;;;14.80;44.97
46756;BME280;32506;52.826;-1.192;2023-05-19T07:17:50;102119.84;;;14.84;45.04
46756;BME280;32506;52.826;-1.192;2023-05-19T07:20:16;102121.09;;;14.88;44.99
46756;BME280;32506;52.826;-1.192;2023-05-19T07:22:41;102116.97;;;14.92;44.80
46756;BME280;32506;52.826;-1.192;2023-05-19T07:25:07;102115.53;;;14.97;44.71
46756;BME280;32506;52.826;-1.192;2023-05-19T07:27:33;102127.75;;;14.99;44.91
46756;BME280;32506;52.826;-1.192;2023-05-19T07:29:58;102121.75;;;15.04;45.00
46756;BME280;32506;52.826;-1.192;2023-05-19T07:32:24;102121.34;;;15.07;45.05
46756;BME280;32506;52.826;-1.192;2023-05-19T07:34:49;102116.19;;;15.12;45.04
46756;BME280;32506;52.826;-1.192;2023-05-19T07:37:15;102112.66;;;15.18;45.04
46756;BME280;32506;52.826;-1.192;2023-05-19T07:39:41;102115.34;;;15.25;45.07
46756;BME280;32506;52.826;-1.192;2023-05-19T07:42:06;102114.31;;;15.33;45.38
46756;BME280;32506;52.826;-1.192;2023-05-19T07:44:32;102118.47;;;15.42;45.47
46756;BME280;32506;52.826;-1.192;2023-05-19T07:46:59;102119.50;;;15.54;45.95
46756;BME280;32506;52.826;-1.192;2023-05-19T07:49:24;102117.00;;;15.66;45.92
46756;BME280;32506;52.826;-1.192;2023-05-19T07:51:50;102119.66;;;15.80;46.41
46756;BME280;32506;52.826;-1.192;2023-05-19T07:54:15;102121.34;;;15.94;46.62
46756;BME280;32506;52.826;-1.192;2023-05-19T07:56:41;102117.53;;;16.08;47.27
46756;BME280;32506;52.826;-1.192;2023-05-19T07:59:07;102124.34;;;16.24;46.93
46756;BME280;32506;52.826;-1.192;2023-05-19T08:01:32;102121.38;;;16.39;46.99
46756;BME280;32506;52.826;-1.192;2023-05-19T08:03:58;102121.72;;;16.56;47.08
46756;BME280;32506;52.826;-1.192;2023-05-19T08:06:23;102123.31;;;16.71;47.05
46756;BME280;32506;52.826;-1.192;2023-05-19T08:08:49;102125.94;;;16.84;47.08
46756;BME280;32506;52.826;-1.192;2023-05-19T08:11:16;102131.28;;;16.98;46.84
46756;BME280;32506;52.826;-1.192;2023-05-19T08:13:41;102124.13;;;17.10;46.72
46756;BME280;32506;52.826;-1.192;2023-05-19T08:16:07;102130.47;;;17.22;46.82
46756;BME280;32506;52.826;-1.192;2023-05-19T08:18:32;102126.22;;;17.33;46.42
46756;BME280;32506;52.826;-1.192;2023-05-19T08:20:58;102122.81;;;17.44;46.52
46756;BME280;32506;52.826;-1.192;2023-05-19T08:23:23;102117.28;;;17.58;46.41
46756;BME280;32506;52.826;-1.192;2023-05-19T08:25:49;102115.50;;;17.70;46.44
46756;BME280;32506;52.826;-1.192;2023-05-19T08:28:14;102123.50;;;17.84;46.31
46756;BME280;32506;52.826;-1.192;2023-05-19T08:30:40;102124.19;;;17.98;46.35
46756;BME280;32506;52.826;-1.192;2023-05-19T08:33:05;102120.28;;;18.12;46.50
46756;BME280;32506;52.826;-1.192;2023-05-19T08:35:31;102125.31;;;18.27;46.52
46756;BME280;32506;52.826;-1.192;2023-05-19T08:37:56;102132.81;;;18.43;46.64
46756;BME280;32506;52.826;-1.192;2023-05-19T08:40:22;102128.66;;;18.59;46.52
46756;BME280;32506;52.826;-1.192;2023-05-19T08:42:47;102119.06;;;18.75;46.50
46756;BME280;32506;52.826;-1.192;2023-05-19T08:45:13;102120.31;;;18.91;46.41
46756;BME280;32506;52.826;-1.192;2023-05-19T08:47:46;102116.69;;;19.09;46.36
46756;BME280;32506;52.826;-1.192;2023-05-19T08:50:15;102105.63;;;19.23;46.31
46756;BME280;32506;52.826;-1.192;2023-05-19T08:52:48;102104.97;;;19.39;46.27
46756;BME280;32506;52.826;-1.192;2023-05-19T08:55:28;102109.91;;;19.54;46.17
46756;BME280;32506;52.826;-1.192;2023-05-19T08:57:58;102107.44;;;19.65;45.91
46756;BME280;32506;52.826;-1.192;2023-05-19T09:00:25;102102.00;;;19.76;45.62
46756;BME280;32506;52.826;-1.192;2023-05-19T09:02:50;102103.66;;;19.89;45.40
46756;BME280;32506;52.826;-1.192;2023-05-19T09:05:18;102097.97;;;20.03;45.51
46756;BME280;32506;52.826;-1.192;2023-05-19T09:07:44;102097.47;;;20.18;45.44
46756;BME280;32506;52.826;-1.192;2023-05-19T09:10:10;102099.91;;;20.31;45.25
46756;BME280;32506;52.826;-1.192;2023-05-19T09:12:40;102101.28;;;20.45;45.17
46756;BME280;32506;52.826;-1.192;2023-05-19T09:15:07;102100.97;;;20.59;45.11
46756;BME280;32506;52.826;-1.192;2023-05-19T09:17:34;102092.81;;;20.71;45.04
46756;BME280;32506;52.826;-1.192;2023-05-19T09:20:02;102099.00;;;20.83;45.01
46756;BME280;32506;52.826;-1.192;2023-05-19T09:22:29;102097.03;;;20.95;44.78
46756;BME280;32506;52.826;-1.192;2023-05-19T09:24:56;102099.31;;;21.04;44.67
46756;BME280;32506;52.826;-1.192;2023-05-19T09:27:21;102094.88;;;21.15;44.41
46756;BME280;32506;52.826;-1.192;2023-05-19T09:29:49;102093.41;;;21.24;44.21
46756;BME280;32506;52.826;-1.192;2023-05-19T09:32:24;102089.78;;;21.35;44.18
46756;BME280;32506;52.826;-1.192;2023-05-19T09:34:53;102093.69;;;21.44;43.87
46756;BME280;32506;52.826;-1.192;2023-05-19T09:37:22;102093.88;;;21.55;43.86
46756;BME280;32506;52.826;-1.192;2023-05-19T09:39:48;102097.56;;;21.66;44.03
46756;BME280;32506;52.826;-1.192;2023-05-19T09:42:23;102098.28;;;21.78;43.76
46756;BME280;32506;52.826;-1.192;2023-05-19T09:44:58;102109.91;;;21.90;43.88
46756;BME280;32506;52.826;-1.192;2023-05-19T09:47:25;102107.53;;;21.99;43.82
46756;BME280;32506;52.826;-1.192;2023-05-19T09:49:52;102108.22;;;22.11;43.76
46756;BME280;32506;52.826;-1.192;2023-05-19T09:52:18;102102.66;;;22.23;43.65
46756;BME280;32506;52.826;-1.192;2023-05-19T09:54:43;102097.91;;;22.36;43.80
46756;BME280;32506;52.826;-1.192;2023-05-19T09:57:09;102096.69;;;22.49;43.67
46756;BME280;32506;52.826;-1.192;2023-05-19T09:59:35;102099.81;;;22.62;43.34
46756;BME280;32506;52.826;-1.192;2023-05-19T10:02:03;102101.59;;;22.74;43.08
46756;BME280;32506;52.826;-1.192;2023-05-19T10:04:30;102101.66;;;22.84;43.42
46756;BME280;32506;52.826;-1.192;2023-05-19T10:06:57;102096.03;;;22.96;43.29
46756;BME280;32506;52.826;-1.192;2023-05-19T10:09:27;102099.41;;;23.08;43.26
46756;BME280;32506;52.826;-1.192;2023-05-19T10:11:54;102100.38;;;23.19;42.98
46756;BME280;32506;52.826;-1.192;2023-05-19T10:14:24;102100.44;;;23.29;43.07
46756;BME280;32506;52.826;-1.192;2023-05-19T10:16:53;102107.59;;;23.41;42.64
46756;BME280;32506;52.826;-1.192;2023-05-19T10:19:23;102108.50;;;23.52;42.55
46756;BME280;32506;52.826;-1.192;2023-05-19T10:21:49;102105.25;;;23.60;42.36
46756;BME280;32506;52.826;-1.192;2023-05-19T10:24:15;102097.38;;;23.69;42.65
46756;BME280;32506;52.826;-1.192;2023-05-19T10:26:46;102101.25;;;23.78;42.53
46756;BME280;32506;52.826;-1.192;2023-05-19T10:29:16;102099.66;;;23.87;42.09
46756;BME280;32506;52.826;-1.192;2023-05-19T10:31:43;102096.44;;;23.95;42.03
46756;BME280;32506;52.826;-1.192;2023-05-19T10:34:28;102094.34;;;24.08;42.07
46756;BME280;32506;52.826;-1.192;2023-05-19T10:39:50;102096.31;;;24.28;41.96
46756;BME280;32506;52.826;-1.192;2023-05-19T10:42:32;102088.94;;;24.44;41.76
46756;BME280;32506;52.826;-1.192;2023-05-19T10:45:35;102088.72;;;24.61;41.61
46756;BME280;32506;52.826;-1.192;2023-05-19T10:48:03;102089.56;;;24.67;41.51
46756;BME280;32506;52.826;-1.192;2023-05-19T10:50:35;102090.66;;;24.76;41.53
46756;BME280;32506;52.826;-1.192;2023-05-19T10:53:01;102096.94;;;24.82;41.44
46756;BME280;32506;52.826;-1.192;2023-05-19T10:55:46;102096.97;;;24.92;41.01
46756;BME280;32506;52.826;-1.192;2023-05-19T10:58:14;102091.78;;;24.95;41.14
46756;BME280;32506;52.826;-1.192;2023-05-19T11:00:39;102080.56;;;25.02;40.87
46756;BME280;32506;52.826;-1.192;2023-05-19T11:03:15;102087.94;;;25.12;40.71
46756;BME280;32506;52.826;-1.192;2023-05-19T11:05:40;102085.72;;;25.19;40.61
46756;BME280;32506;52.826;-1.192;2023-05-19T11:08:10;102080.25;;;25.29;40.65
46756;BME280;32506;52.826;-1.192;2023-05-19T11:10:36;102081.34;;;25.39;40.48
46756;BME280;32506;52.826;-1.192;2023-05-19T11:13:03;102081.34;;;25.49;40.60
46756;BME280;32506;52.826;-1.192;2023-05-19T11:15:34;102087.59;;;25.60;40.34
46756;BME280;32506;52.826;-1.192;2023-05-19T11:18:01;102085.09;;;25.69;40.16
46756;BME280;32506;52.826;-1.192;2023-05-19T11:20:28;102086.72;;;25.80;40.04
46756;BME280;32506;52.826;-1.192;2023-05-19T11:23:15;102089.13;;;25.92;39.91
46756;BME280;32506;52.826;-1.192;2023-05-19T11:25:51;102091.81;;;25.97;39.98
46756;BME280;32506;52.826;-1.192;2023-05-19T11:28:22;102097.03;;;26.04;39.86
46756;BME280;32506;52.826;-1.192;2023-05-19T11:30:57;102095.91;;;26.10;39.69
46756;BME280;32506;52.826;-1.192;2023-05-19T11:33:24;102100.28;;;26.16;39.56
46756;BME280;32506;52.826;-1.192;2023-05-19T11:35:56;102096.69;;;26.21;39.70
46756;BME280;32506;52.826;-1.192;2023-05-19T11:38:25;102084.88;;;26.25;39.83
46756;BME280;32506;52.826;-1.192;2023-05-19T11:40:54;102088.63;;;26.35;39.65
46756;BME280;32506;52.826;-1.192;2023-05-19T11:43:23;102086.94;;;26.44;39.76
46756;BME280;32506;52.826;-1.192;2023-05-19T11:45:49;102073.97;;;26.55;39.82
46756;BME280;32506;52.826;-1.192;2023-05-19T11:48:14;102076.38;;;26.67;39.54
46756;BME280;32506;52.826;-1.192;2023-05-19T11:50:41;102076.59;;;26.81;39.77
46756;BME280;32506;52.826;-1.192;2023-05-19T11:53:10;102078.94;;;26.92;40.12
46756;BME280;32506;52.826;-1.192;2023-05-19T11:55:44;102074.41;;;27.07;39.57
46756;BME280;32506;52.826;-1.192;2023-05-19T11:58:10;102076.47;;;27.20;39.12
46756;BME280;32506;52.826;-1.192;2023-05-19T12:00:37;102079.06;;;27.36;39.48
46756;BME280;32506;52.826;-1.192;2023-05-19T12:03:04;102076.19;;;27.51;39.34
46756;BME280;32506;52.826;-1.192;2023-05-19T12:05:29;102074.06;;;27.67;39.68
46756;BME280;32506;52.826;-1.192;2023-05-19T12:07:56;102072.75;;;27.84;38.94
46756;BME280;32506;52.826;-1.192;2023-05-19T12:10:31;102074.44;;;28.04;39.33
46756;BME280;32506;52.826;-1.192;2023-05-19T12:12:58;102065.19;;;28.19;38.88
46756;BME280;32506;52.826;-1.192;2023-05-19T12:15:24;102069.56;;;28.39;39.32
46756;BME280;32506;52.826;-1.192;2023-05-19T12:20:18;102070.66;;;28.76;39.02
46756;BME280;32506;52.826;-1.192;2023-05-19T12:22:45;102055.50;;;28.92;38.55
46756;BME280;32506;52.826;-1.192;2023-05-19T12:25:11;102073.66;;;29.07;38.53
46756;BME280;32506;52.826;-1.192;2023-05-19T12:27:37;102063.31;;;29.18;38.20
46756;BME280;32506;52.826;-1.192;2023-05-19T12:30:03;102062.09;;;29.24;38.24
46756;BME280;32506;52.826;-1.192;2023-05-19T12:32:32;102069.16;;;29.31;38.06
46756;BME280;32506;52.826;-1.192;2023-05-19T12:34:58;102065.78;;;29.34;37.94
46756;BME280;32506;52.826;-1.192;2023-05-19T12:37:27;102068.53;;;29.34;37.74
46756;BME280;32506;52.826;-1.192;2023-05-19T12:39:55;102064.69;;;29.35;38.01
46756;BME280;32506;52.826;-1.192;2023-05-19T12:42:21;102059.88;;;29.26;38.04
46756;BME280;32506;52.826;-1.192;2023-05-19T12:44:48;102055.25;;;29.22;37.95
46756;BME280;32506;52.826;-1.192;2023-05-19T12:47:16;102059.22;;;29.16;37.50
46756;BME280;32506;52.826;-1.192;2023-05-19T12:52:19;102062.88;;;28.97;35.50
46756;BME280;32506;52.826;-1.192;2023-05-19T12:54:47;102066.09;;;28.85;35.62
46756;BME280;32506;52.826;-1.192;2023-05-19T12:57:15;102065.75;;;28.73;35.26
46756;BME280;32506;52.826;-1.192;2023-05-19T12:59:41;102072.00;;;28.59;35.37
46756;BME280;32506;52.826;-1.192;2023-05-19T13:02:07;102076.31;;;28.46;35.44
46756;BME280;32506;52.826;-1.192;2023-05-19T13:04:32;102071.06;;;28.31;35.77